Time,TemperatureF,DewpointF,PressureIn,WindDirection,WindDirectionDegrees,WindSpeedMPH,WindSpeedGustMPH,Humidity,HourlyPrecipIn,Conditions,Clouds,dailyrainin,SoftwareType,DateUTC
2013-09-20 00:01:00,65.2,62.8,30.11,WSW,252,0.0,0.0,92,0.00,,,0.00,Wunderground v.1.13,2013-09-20 04:01:00,
2013-09-20 00:02:00,65.2,62.8,30.11,WSW,252,0.0,0.0,92,0.00,,,0.00,Wunderground v.1.13,2013-09-20 04:02:00,
2013-09-20 00:04:00,65.1,62.7,30.11,WSW,252,0.0,0.0,92,0.00,,,0.00,Wunderground v.1.13,2013-09-20 04:04:00,
2013-09-20 00:06:00,65.0,62.6,30.11,WSW,252,0.0,0.0,92,0.00,,,0.00,Wunderground v.1.13,2013-09-20 04:06:00,
2013-09-20 00:11:00,64.8,62.4,30.11,WSW,252,0.0,0.0,92,0.00,,,0.00,Wunderground v.1.13,2013-09-20 04:11:00,
2013-09-20 00:17:00,64.7,62.3,30.11,WSW,252,0.0,0.0,92,0.00,,,0.00,Wunderground v.1.13,2013-09-20 04:17:00,
2013-09-20 00:22:00,64.6,62.5,30.11,WSW,252,0.0,0.0,93,0.00,,,0.00,Wunderground v.1.13,2013-09-20 04:22:00,
2013-09-20 00:28:00,64.4,62.3,30.11,WSW,252,0.0,0.0,93,0.00,,,0.00,Wunderground v.1.13,2013-09-20 04:28:00,
2013-09-20 00:33:00,64.3,62.2,30.11,WSW,252,0.0,0.0,93,0.00,,,0.00,Wunderground v.1.13,2013-09-20 04:33:00,
2013-09-20 00:39:00,64.2,62.1,30.11,WSW,252,0.0,0.0,93,0.00,,,0.00,Wunderground v.1.13,2013-09-20 04:39:00,
2013-09-20 00:44:00,64.0,61.9,30.11,WSW,252,0.0,0.0,93,0.00,,,0.00,Wunderground v.1.13,2013-09-20 04:44:00,
2013-09-20 00:50:00,63.9,61.8,30.11,WSW,252,0.0,0.0,93,0.00,,,0.00,Wunderground v.1.13,2013-09-20 04:50:00,
2013-09-20 00:55:00,63.8,61.7,30.11,WSW,252,0.0,0.0,93,0.00,,,0.00,Wunderground v.1.13,2013-09-20 04:55:00,
2013-09-20 01:01:00,63.6,61.5,30.11,WSW,252,0.0,0.0,93,0.00,,,0.00,Wunderground v.1.13,2013-09-20 05:01:00,
2013-09-20 01:07:00,63.5,61.4,30.11,WSW,252,0.0,0.0,93,0.00,,,0.00,Wunderground v.1.13,2013-09-20 05:07:00,
2013-09-20 01:13:00,63.4,61.3,30.11,WSW,252,0.0,0.0,93,0.00,,,0.00,Wunderground v.1.13,2013-09-20 05:13:00,
2013-09-20 01:18:00,63.2,61.1,30.11,WSW,252,0.0,0.0,93,0.00,,,0.00,Wunderground v.1.13,2013-09-20 05:18:00,
2013-09-20 01:24:00,63.1,61.0,30.11,WSW,252,0.0,0.0,93,0.00,,,0.00,Wunderground v.1.13,2013-09-20 05:24:00,
2013-09-20 01:30:00,62.9,60.8,30.11,WSW,252,0.0,0.0,93,0.00,,,0.00,Wunderground v.1.13,2013-09-20 05:30:00,
2013-09-20 01:35:00,62.9,61.1,30.11,WSW,252,0.0,0.0,94,0.00,,,0.00,Wunderground v.1.13,2013-09-20 05:35:00,
2013-09-20 01:41:00,62.9,61.1,30.10,WSW,252,0.0,0.0,94,0.00,,,0.00,Wunderground v.1.13,2013-09-20 05:41:00,
2013-09-20 01:46:00,62.8,61.0,30.10,WSW,252,0.0,0.0,94,0.00,,,0.00,Wunderground v.1.13,2013-09-20 05:46:00,
2013-09-20 01:52:00,62.6,60.8,30.10,WSW,252,0.0,0.0,94,0.00,,,0.00,Wunderground v.1.13,2013-09-20 05:52:00,
2013-09-20 01:58:00,62.5,60.7,30.10,WSW,252,0.0,0.0,94,0.00,,,0.00,Wunderground v.1.13,2013-09-20 05:58:00,
2013-09-20 02:04:00,62.4,60.7,30.10,WSW,252,0.0,0.0,94,0.00,,,0.00,Wunderground v.1.13,2013-09-20 06:04:00,
2013-09-20 02:10:00,62.3,60.6,30.10,WSW,252,0.0,0.0,94,0.00,,,0.00,Wunderground v.1.13,2013-09-20 06:10:00,
2013-09-20 02:15:00,62.1,60.4,30.10,WSW,252,0.0,0.0,94,0.00,,,0.00,Wunderground v.1.13,2013-09-20 06:15:00,
2013-09-20 02:21:00,62.0,60.3,30.10,WSW,252,0.0,0.0,94,0.00,,,0.00,Wunderground v.1.13,2013-09-20 06:21:00,
2013-09-20 02:26:00,61.9,60.2,30.10,WSW,252,0.0,0.0,94,0.00,,,0.00,Wunderground v.1.13,2013-09-20 06:26:00,
2013-09-20 02:32:00,61.8,60.1,30.10,WSW,252,0.0,0.0,94,0.00,,,0.00,Wunderground v.1.13,2013-09-20 06:32:00,
2013-09-20 02:38:00,61.7,60.0,30.10,WSW,252,0.0,0.0,94,0.00,,,0.00,Wunderground v.1.13,2013-09-20 06:38:00,
2013-09-20 02:44:00,61.6,59.9,30.10,WSW,252,0.0,0.0,94,0.00,,,0.00,Wunderground v.1.13,2013-09-20 06:44:00,
2013-09-20 02:50:00,61.6,60.2,30.10,WSW,252,0.0,0.0,95,0.00,,,0.00,Wunderground v.1.13,2013-09-20 06:50:00,
2013-09-20 02:55:00,61.5,60.1,30.10,WSW,252,0.0,0.0,95,0.00,,,0.00,Wunderground v.1.13,2013-09-20 06:55:00,
2013-09-20 03:00:00,61.5,60.1,30.10,WSW,252,0.0,0.0,95,0.00,,,0.00,Wunderground v.1.13,2013-09-20 07:00:00,
2013-09-20 03:06:00,61.3,59.6,30.10,WSW,252,0.0,0.0,94,0.00,,,0.00,Wunderground v.1.13,2013-09-20 07:06:00,
2013-09-20 03:11:00,61.2,59.5,30.10,WSW,252,0.0,0.0,94,0.00,,,0.00,Wunderground v.1.13,2013-09-20 07:11:00,
2013-09-20 03:17:00,61.1,59.7,30.10,WSW,252,0.0,0.0,95,0.00,,,0.00,Wunderground v.1.13,2013-09-20 07:17:00,
2013-09-20 03:22:00,61.0,59.6,30.10,WSW,252,0.0,0.0,95,0.00,,,0.00,Wunderground v.1.13,2013-09-20 07:22:00,
2013-09-20 03:28:00,60.9,59.5,30.10,WSW,252,0.0,0.0,95,0.00,,,0.00,Wunderground v.1.13,2013-09-20 07:28:00,
2013-09-20 03:33:00,60.9,59.5,30.10,WSW,252,0.0,0.0,95,0.00,,,0.00,Wunderground v.1.13,2013-09-20 07:33:00,
2013-09-20 03:38:00,60.8,59.4,30.10,WSW,252,0.0,0.0,95,0.00,,,0.00,Wunderground v.1.13,2013-09-20 07:38:00,
2013-09-20 03:43:00,60.7,59.3,30.10,WSW,252,0.0,0.0,95,0.00,,,0.00,Wunderground v.1.13,2013-09-20 07:43:00,
2013-09-20 03:49:00,60.6,59.2,30.10,WSW,252,0.0,0.0,95,0.00,,,0.00,Wunderground v.1.13,2013-09-20 07:49:00,
2013-09-20 03:55:00,60.5,59.1,30.10,WSW,252,0.0,0.0,95,0.00,,,0.00,Wunderground v.1.13,2013-09-20 07:55:00,
2013-09-20 04:00:00,60.5,59.1,30.10,WSW,252,0.0,0.0,95,0.00,,,0.00,Wunderground v.1.13,2013-09-20 08:00:00,
2013-09-20 04:06:00,60.5,59.1,30.10,WSW,252,0.0,0.0,95,0.00,,,0.00,Wunderground v.1.13,2013-09-20 08:06:00,
2013-09-20 04:11:00,60.5,59.1,30.10,WSW,252,0.0,0.0,95,0.00,,,0.00,Wunderground v.1.13,2013-09-20 08:11:00,
2013-09-20 04:17:00,60.4,59.0,30.10,WSW,252,0.0,0.0,95,0.00,,,0.00,Wunderground v.1.13,2013-09-20 08:17:00,
2013-09-20 04:23:00,60.3,58.9,30.10,WSW,252,0.0,0.0,95,0.00,,,0.00,Wunderground v.1.13,2013-09-20 08:23:00,
2013-09-20 04:30:00,60.2,58.8,30.10,WSW,252,0.0,0.0,95,0.00,,,0.00,Wunderground v.1.13,2013-09-20 08:30:00,
2013-09-20 04:36:00,60.2,58.8,30.10,WSW,252,0.0,0.0,95,0.00,,,0.00,Wunderground v.1.13,2013-09-20 08:36:00,
2013-09-20 04:42:00,60.1,58.7,30.10,WSW,252,0.0,0.0,95,0.00,,,0.00,Wunderground v.1.13,2013-09-20 08:42:00,
2013-09-20 04:48:00,60.0,58.6,30.10,WSW,252,0.0,0.0,95,0.00,,,0.00,Wunderground v.1.13,2013-09-20 08:48:00,
2013-09-20 04:54:00,59.9,58.5,30.10,WSW,252,0.0,0.0,95,0.00,,,0.00,Wunderground v.1.13,2013-09-20 08:54:00,
2013-09-20 04:59:00,59.8,58.4,30.10,WSW,252,0.0,0.0,95,0.00,,,0.00,Wunderground v.1.13,2013-09-20 08:59:00,
2013-09-20 05:05:00,59.6,58.2,30.10,WSW,252,0.0,0.0,95,0.00,,,0.00,Wunderground v.1.13,2013-09-20 09:05:00,
2013-09-20 05:10:00,59.5,58.1,30.10,WSW,252,0.0,0.0,95,0.00,,,0.00,Wunderground v.1.13,2013-09-20 09:10:00,
2013-09-20 05:16:00,59.4,58.0,30.09,WSW,252,0.0,0.0,95,0.00,,,0.00,Wunderground v.1.13,2013-09-20 09:16:00,
2013-09-20 05:22:00,59.4,58.0,30.09,WSW,252,0.0,0.0,95,0.00,,,0.00,Wunderground v.1.13,2013-09-20 09:22:00,
2013-09-20 05:28:00,59.3,57.9,30.10,WSW,252,0.0,0.0,95,0.00,,,0.00,Wunderground v.1.13,2013-09-20 09:28:00,
2013-09-20 05:34:00,59.2,57.8,30.09,WSW,252,0.0,0.0,95,0.00,,,0.00,Wunderground v.1.13,2013-09-20 09:34:00,
2013-09-20 05:39:00,59.1,57.7,30.10,WSW,252,0.0,0.0,95,0.00,,,0.00,Wunderground v.1.13,2013-09-20 09:39:00,
2013-09-20 05:45:00,59.0,57.6,30.10,WSW,252,0.0,0.0,95,0.00,,,0.00,Wunderground v.1.13,2013-09-20 09:45:00,
2013-09-20 05:51:00,59.0,57.6,30.10,WSW,252,0.0,0.0,95,0.00,,,0.00,Wunderground v.1.13,2013-09-20 09:51:00,
2013-09-20 05:57:00,59.0,57.9,30.10,WSW,252,0.0,0.0,96,0.00,,,0.00,Wunderground v.1.13,2013-09-20 09:57:00,
2013-09-20 06:03:00,59.0,57.9,30.10,WSW,252,0.0,0.0,96,0.00,,,0.00,Wunderground v.1.13,2013-09-20 10:03:00,
2013-09-20 06:09:00,59.0,57.9,30.10,WSW,252,0.0,0.0,96,0.00,,,0.00,Wunderground v.1.13,2013-09-20 10:09:00,
2013-09-20 06:14:00,59.0,57.9,30.10,WSW,252,0.0,0.0,96,0.00,,,0.00,Wunderground v.1.13,2013-09-20 10:14:00,
2013-09-20 06:20:00,58.9,57.5,30.09,WSW,252,0.0,0.0,95,0.00,,,0.00,Wunderground v.1.13,2013-09-20 10:20:00,
2013-09-20 06:26:00,58.8,57.4,30.09,WSW,252,0.0,0.0,95,0.00,,,0.00,Wunderground v.1.13,2013-09-20 10:26:00,
2013-09-20 06:31:00,58.7,57.6,30.09,WSW,252,0.0,0.0,96,0.00,,,0.00,Wunderground v.1.13,2013-09-20 10:31:00,
2013-09-20 06:38:00,58.6,57.5,30.09,WSW,252,0.0,0.0,96,0.00,,,0.00,Wunderground v.1.13,2013-09-20 10:38:00,
2013-09-20 06:43:00,58.5,57.4,30.09,WSW,252,0.0,0.0,96,0.00,,,0.00,Wunderground v.1.13,2013-09-20 10:43:00,
2013-09-20 06:49:00,58.4,57.3,30.09,WSW,252,0.0,0.0,96,0.00,,,0.00,Wunderground v.1.13,2013-09-20 10:49:00,
2013-09-20 06:55:00,58.4,57.3,30.10,WSW,252,0.0,0.0,96,0.00,,,0.00,Wunderground v.1.13,2013-09-20 10:55:00,
2013-09-20 07:00:00,58.4,57.3,30.10,WSW,252,0.0,0.0,96,0.00,,,0.00,Wunderground v.1.13,2013-09-20 11:00:00,
2013-09-20 07:05:00,58.3,57.2,30.10,WSW,252,0.0,0.0,96,0.00,,,0.00,Wunderground v.1.13,2013-09-20 11:05:00,
2013-09-20 07:11:00,58.3,57.2,30.10,WSW,252,0.0,0.0,96,0.00,,,0.00,Wunderground v.1.13,2013-09-20 11:11:00,
2013-09-20 07:17:00,58.3,57.2,30.11,WSW,252,0.0,0.0,96,0.00,,,0.00,Wunderground v.1.13,2013-09-20 11:17:00,
2013-09-20 07:23:00,58.3,57.2,30.10,WSW,252,0.0,0.0,96,0.00,,,0.00,Wunderground v.1.13,2013-09-20 11:23:00,
2013-09-20 07:29:00,58.3,57.2,30.10,WSW,252,0.0,0.0,96,0.00,,,0.00,Wunderground v.1.13,2013-09-20 11:29:00,
2013-09-20 07:35:00,58.3,57.2,30.10,WSW,252,0.0,0.0,96,0.00,,,0.00,Wunderground v.1.13,2013-09-20 11:35:00,
2013-09-20 07:41:00,58.3,57.2,30.10,WSW,252,0.0,0.0,96,0.00,,,0.00,Wunderground v.1.13,2013-09-20 11:41:00,
2013-09-20 07:46:00,58.3,57.2,30.10,WSW,252,0.0,0.0,96,0.00,,,0.00,Wunderground v.1.13,2013-09-20 11:46:00,
2013-09-20 07:52:00,58.4,57.3,30.10,WSW,252,0.0,0.0,96,0.00,,,0.00,Wunderground v.1.13,2013-09-20 11:52:00,
2013-09-20 07:58:00,58.6,57.5,30.10,WSW,252,0.0,0.0,96,0.00,,,0.00,Wunderground v.1.13,2013-09-20 11:58:00,
2013-09-20 08:03:00,58.7,57.9,30.10,WSW,252,0.0,0.0,97,0.00,,,0.00,Wunderground v.1.13,2013-09-20 12:03:00,
2013-09-20 08:08:00,59.0,58.2,30.11,WSW,252,0.0,0.0,97,0.00,,,0.00,Wunderground v.1.13,2013-09-20 12:08:00,
2013-09-20 08:14:00,59.2,58.3,30.11,WSW,252,0.0,0.0,97,0.00,,,0.00,Wunderground v.1.13,2013-09-20 12:14:00,
2013-09-20 08:20:00,59.9,59.0,30.11,WSW,252,0.0,0.0,97,0.00,,,0.00,Wunderground v.1.13,2013-09-20 12:20:00,
2013-09-20 08:26:00,60.5,59.9,30.11,WSW,252,0.0,0.0,98,0.00,,,0.00,Wunderground v.1.13,2013-09-20 12:26:00,
2013-09-20 08:31:00,61.1,60.5,30.11,WSW,252,0.0,0.0,98,0.00,,,0.00,Wunderground v.1.13,2013-09-20 12:31:00,
2013-09-20 08:37:00,61.9,61.3,30.11,WSW,252,0.0,0.0,98,0.00,,,0.00,Wunderground v.1.13,2013-09-20 12:37:00,
2013-09-20 08:42:00,62.7,62.1,30.11,WSW,252,0.0,0.0,98,0.00,,,0.00,Wunderground v.1.13,2013-09-20 12:42:00,
2013-09-20 08:48:00,63.6,63.0,30.10,WSW,252,0.0,0.0,98,0.00,,,0.00,Wunderground v.1.13,2013-09-20 12:48:00,
2013-09-20 08:53:00,64.1,63.5,30.10,WSW,252,0.0,0.0,98,0.00,,,0.00,Wunderground v.1.13,2013-09-20 12:53:00,
2013-09-20 08:58:00,64.8,64.2,30.10,WSW,252,0.0,0.0,98,0.00,,,0.00,Wunderground v.1.13,2013-09-20 12:58:00,
2013-09-20 09:03:00,65.6,65.3,30.10,WSW,252,0.0,0.0,99,0.00,,,0.00,Wunderground v.1.13,2013-09-20 13:03:00,
2013-09-20 09:09:00,66.3,65.7,30.11,WSW,252,0.0,0.0,98,0.00,,,0.00,Wunderground v.1.13,2013-09-20 13:09:00,
2013-09-20 09:15:00,67.0,66.4,30.11,WSW,252,0.0,0.0,98,0.00,,,0.00,Wunderground v.1.13,2013-09-20 13:15:00,
2013-09-20 09:20:00,67.7,66.8,30.11,WSW,252,0.0,0.0,97,0.00,,,0.00,Wunderground v.1.13,2013-09-20 13:20:00,
2013-09-20 09:25:00,68.3,67.4,30.11,WSW,252,0.0,0.0,97,0.00,,,0.00,Wunderground v.1.13,2013-09-20 13:25:00,
2013-09-20 09:30:00,69.1,67.9,30.11,WSW,252,0.0,0.0,96,0.00,,,0.00,Wunderground v.1.13,2013-09-20 13:30:00,
2013-09-20 09:36:00,70.1,68.3,30.11,WSW,252,0.0,0.0,94,0.00,,,0.00,Wunderground v.1.13,2013-09-20 13:36:00,
2013-09-20 09:43:00,71.5,68.7,30.11,WSW,252,0.0,0.0,91,0.00,,,0.00,Wunderground v.1.13,2013-09-20 13:43:00,
2013-09-20 09:49:00,72.5,68.4,30.10,WSW,252,0.0,0.0,87,0.00,,,0.00,Wunderground v.1.13,2013-09-20 13:49:00,
2013-09-20 09:55:00,73.4,67.9,30.10,WSW,252,0.0,0.0,83,0.00,,,0.00,Wunderground v.1.13,2013-09-20 13:55:00,
2013-09-20 10:00:00,74.1,67.9,30.10,WSW,252,0.0,0.0,81,0.00,,,0.00,Wunderground v.1.13,2013-09-20 14:00:00,
2013-09-20 10:06:00,74.7,68.1,30.10,WSW,252,0.0,0.0,80,0.00,,,0.00,Wunderground v.1.13,2013-09-20 14:06:00,
2013-09-20 10:12:00,75.2,67.9,30.10,WSW,252,1.0,5.0,78,0.00,,,0.00,Wunderground v.1.13,2013-09-20 14:12:00,
2013-09-20 10:18:00,75.5,67.8,30.10,WSW,252,1.0,1.0,77,0.00,,,0.00,Wunderground v.1.13,2013-09-20 14:18:00,
2013-09-20 10:23:00,76.0,67.5,30.10,WSW,252,1.0,4.0,75,0.00,,,0.00,Wunderground v.1.13,2013-09-20 14:23:00,
2013-09-20 10:29:00,76.3,67.8,30.10,WSW,252,2.0,4.0,75,0.00,,,0.00,Wunderground v.1.13,2013-09-20 14:29:00,
2013-09-20 10:35:00,76.4,67.9,30.09,WSW,252,2.0,3.0,75,0.00,,,0.00,Wunderground v.1.13,2013-09-20 14:35:00,
2013-09-20 10:40:00,76.5,67.6,30.09,WSW,252,3.0,3.0,74,0.00,,,0.00,Wunderground v.1.13,2013-09-20 14:40:00,
2013-09-20 10:45:00,76.9,68.0,30.09,WSW,252,2.0,3.0,74,0.00,,,0.00,Wunderground v.1.13,2013-09-20 14:45:00,
2013-09-20 10:51:00,77.3,68.0,30.09,WSW,252,2.0,3.0,73,0.00,,,0.00,Wunderground v.1.13,2013-09-20 14:51:00,
2013-09-20 10:57:00,77.4,68.1,30.09,West,269,4.0,4.0,73,0.00,,,0.00,Wunderground v.1.13,2013-09-20 14:57:00,
2013-09-20 11:02:00,77.7,68.4,30.09,West,269,3.0,3.0,73,0.00,,,0.00,Wunderground v.1.13,2013-09-20 15:02:00,
2013-09-20 11:09:00,78.3,68.9,30.09,West,269,1.0,2.0,73,0.00,,,0.00,Wunderground v.1.13,2013-09-20 15:09:00,
2013-09-20 11:15:00,78.7,68.5,30.09,West,271,1.0,1.0,71,0.00,,,0.00,Wunderground v.1.13,2013-09-20 15:15:00,
2013-09-20 11:21:00,78.9,68.7,30.09,West,271,1.0,5.0,71,0.00,,,0.00,Wunderground v.1.13,2013-09-20 15:21:00,
2013-09-20 11:26:00,78.9,68.3,30.09,West,271,1.0,3.0,70,0.00,,,0.00,Wunderground v.1.13,2013-09-20 15:26:00,
2013-09-20 11:32:00,79.3,68.2,30.09,West,278,4.0,6.0,69,0.00,,,0.00,Wunderground v.1.13,2013-09-20 15:32:00,
2013-09-20 11:38:00,79.5,68.4,30.09,West,274,4.0,4.0,69,0.00,,,0.00,Wunderground v.1.13,2013-09-20 15:38:00,
2013-09-20 11:43:00,79.6,68.1,30.09,WNW,290,4.0,6.0,68,0.00,,,0.00,Wunderground v.1.13,2013-09-20 15:43:00,
2013-09-20 11:49:00,80.1,69.0,30.09,WNW,292,4.0,5.0,69,0.00,,,0.00,Wunderground v.1.13,2013-09-20 15:49:00,
2013-09-20 11:55:00,80.6,68.2,30.09,WSW,256,4.0,6.0,66,0.00,,,0.00,Wunderground v.1.13,2013-09-20 15:55:00,
2013-09-20 12:01:00,80.9,68.5,30.08,West,275,4.0,6.0,66,0.00,,,0.00,Wunderground v.1.13,2013-09-20 16:01:00,
2013-09-20 12:07:00,80.6,67.7,30.08,WSW,248,4.0,9.0,65,0.00,,,0.00,Wunderground v.1.13,2013-09-20 16:07:00,
2013-09-20 12:12:00,80.4,68.0,30.07,West,261,5.0,7.0,66,0.00,,,0.00,Wunderground v.1.13,2013-09-20 16:12:00,
2013-09-20 12:17:00,80.9,69.3,30.07,WNW,285,4.0,5.0,68,0.00,,,0.00,Wunderground v.1.13,2013-09-20 16:17:00,
2013-09-20 12:23:00,81.4,68.1,30.07,WSW,250,4.0,7.0,64,0.00,,,0.00,Wunderground v.1.13,2013-09-20 16:23:00,
2013-09-20 12:29:00,81.3,68.4,30.07,West,278,4.0,7.0,65,0.00,,,0.00,Wunderground v.1.13,2013-09-20 16:29:00,
2013-09-20 12:34:00,81.6,68.2,30.07,WSW,252,4.0,5.0,64,0.00,,,0.00,Wunderground v.1.13,2013-09-20 16:34:00,
2013-09-20 12:40:00,81.3,68.4,30.07,WNW,282,5.0,6.0,65,0.00,,,0.00,Wunderground v.1.13,2013-09-20 16:40:00,
2013-09-20 12:46:00,81.3,68.0,30.06,WNW,287,5.0,7.0,64,0.00,,,0.00,Wunderground v.1.13,2013-09-20 16:46:00,
2013-09-20 12:52:00,81.8,68.9,30.06,West,278,5.0,10.0,65,0.00,,,0.00,Wunderground v.1.13,2013-09-20 16:52:00,
2013-09-20 12:57:00,81.3,68.0,30.06,West,263,5.0,6.0,64,0.00,,,0.00,Wunderground v.1.13,2013-09-20 16:57:00,
2013-09-20 13:03:00,80.9,68.5,30.06,West,262,4.0,5.0,66,0.00,,,0.00,Wunderground v.1.13,2013-09-20 17:03:00,
2013-09-20 13:09:00,81.5,68.1,30.05,WSW,255,3.0,6.0,64,0.00,,,0.00,Wunderground v.1.13,2013-09-20 17:09:00,
2013-09-20 13:15:00,81.8,68.9,30.05,West,261,2.0,5.0,65,0.00,,,0.00,Wunderground v.1.13,2013-09-20 17:15:00,
2013-09-20 13:20:00,81.7,68.3,30.05,West,271,3.0,3.0,64,0.00,,,0.00,Wunderground v.1.13,2013-09-20 17:20:00,
2013-09-20 13:26:00,81.5,68.1,30.05,West,269,3.0,4.0,64,0.00,,,0.00,Wunderground v.1.13,2013-09-20 17:26:00,
2013-09-20 13:31:00,81.6,68.7,30.04,West,271,3.0,5.0,65,0.00,,,0.00,Wunderground v.1.13,2013-09-20 17:31:00,
2013-09-20 13:37:00,81.7,68.3,30.04,West,272,3.0,10.0,64,0.00,,,0.00,Wunderground v.1.13,2013-09-20 17:37:00,
2013-09-20 13:43:00,82.1,68.7,30.04,West,263,4.0,6.0,64,0.00,,,0.00,Wunderground v.1.13,2013-09-20 17:43:00,
2013-09-20 13:48:00,82.4,68.5,30.04,WSW,238,5.0,10.0,63,0.00,,,0.00,Wunderground v.1.13,2013-09-20 17:48:00,
2013-09-20 13:54:00,82.6,68.3,30.03,WNW,283,6.0,12.0,62,0.00,,,0.00,Wunderground v.1.13,2013-09-20 17:54:00,
2013-09-20 14:00:00,82.7,67.9,30.03,WSW,248,6.0,6.0,61,0.00,,,0.00,Wunderground v.1.13,2013-09-20 18:00:00,
2013-09-20 14:06:00,82.3,67.5,30.03,West,259,5.0,6.0,61,0.00,,,0.00,Wunderground v.1.13,2013-09-20 18:06:00,
2013-09-20 14:11:00,81.8,68.0,30.03,SW,228,4.0,6.0,63,0.00,,,0.00,Wunderground v.1.13,2013-09-20 18:11:00,
2013-09-20 14:17:00,81.9,67.6,30.02,WNW,283,6.0,10.0,62,0.00,,,0.00,Wunderground v.1.13,2013-09-20 18:17:00,
2013-09-20 14:23:00,83.0,68.2,30.02,West,277,6.0,9.0,61,0.00,,,0.00,Wunderground v.1.13,2013-09-20 18:23:00,
2013-09-20 14:28:00,83.1,67.3,30.02,SW,224,6.0,9.0,59,0.00,,,0.00,Wunderground v.1.13,2013-09-20 18:28:00,
2013-09-20 14:33:00,83.2,67.4,30.01,West,270,6.0,6.0,59,0.00,,,0.00,Wunderground v.1.13,2013-09-20 18:33:00,
2013-09-20 14:39:00,83.8,67.9,30.01,WSW,238,5.0,7.0,59,0.00,,,0.00,Wunderground v.1.13,2013-09-20 18:39:00,
2013-09-20 14:45:00,83.7,67.8,30.01,WNW,293,5.0,7.0,59,0.00,,,0.00,Wunderground v.1.13,2013-09-20 18:45:00,
2013-09-20 14:51:00,83.6,68.2,30.01,NW,305,4.0,6.0,60,0.00,,,0.00,Wunderground v.1.13,2013-09-20 18:51:00,
2013-09-20 14:56:00,83.6,68.2,30.00,West,273,4.0,6.0,60,0.00,,,0.00,Wunderground v.1.13,2013-09-20 18:56:00,
2013-09-20 15:02:00,83.7,67.8,30.00,WSW,255,7.0,7.0,59,0.00,,,0.00,Wunderground v.1.13,2013-09-20 19:02:00,
2013-09-20 15:08:00,84.0,67.6,30.00,WSW,237,5.0,8.0,58,0.00,,,0.00,Wunderground v.1.13,2013-09-20 19:08:00,
2013-09-20 15:14:00,84.1,66.7,29.99,West,260,5.0,11.0,56,0.00,,,0.00,Wunderground v.1.13,2013-09-20 19:14:00,
2013-09-20 15:20:00,84.3,66.9,29.98,WNW,302,5.0,6.0,56,0.00,,,0.00,Wunderground v.1.13,2013-09-20 19:20:00,
2013-09-20 15:25:00,84.7,67.3,29.98,West,279,5.0,7.0,56,0.00,,,0.00,Wunderground v.1.13,2013-09-20 19:25:00,
2013-09-20 15:31:00,84.8,66.3,29.98,WNW,284,4.0,5.0,54,0.00,,,0.00,Wunderground v.1.13,2013-09-20 19:31:00,
2013-09-20 15:36:00,84.6,66.7,29.98,West,280,3.0,3.0,55,0.00,,,0.00,Wunderground v.1.13,2013-09-20 19:36:00,
2013-09-20 15:42:00,84.2,67.3,29.98,West,269,2.0,3.0,57,0.00,,,0.00,Wunderground v.1.13,2013-09-20 19:42:00,
2013-09-20 15:47:00,83.8,67.4,29.98,West,264,1.0,3.0,58,0.00,,,0.00,Wunderground v.1.13,2013-09-20 19:47:00,
2013-09-20 15:52:00,83.6,67.3,29.98,West,260,1.0,1.0,58,0.00,,,0.00,Wunderground v.1.13,2013-09-20 19:52:00,
2013-09-20 15:58:00,83.8,67.4,29.97,SSW,202,2.0,6.0,58,0.00,,,0.00,Wunderground v.1.13,2013-09-20 19:58:00,
2013-09-20 16:04:00,84.1,67.2,29.97,SW,217,3.0,9.0,57,0.00,,,0.00,Wunderground v.1.13,2013-09-20 20:04:00,
2013-09-20 16:10:00,84.3,66.9,29.97,West,275,5.0,5.0,56,0.00,,,0.00,Wunderground v.1.13,2013-09-20 20:10:00,
2013-09-20 16:16:00,84.5,66.6,29.96,WNW,294,3.0,5.0,55,0.00,,,0.00,Wunderground v.1.13,2013-09-20 20:16:00,
2013-09-20 16:21:00,84.5,66.6,29.95,WSW,248,3.0,5.0,55,0.00,,,0.00,Wunderground v.1.13,2013-09-20 20:21:00,
2013-09-20 16:27:00,84.3,66.9,29.96,WSW,247,3.0,4.0,56,0.00,,,0.00,Wunderground v.1.13,2013-09-20 20:27:00,
2013-09-20 16:33:00,83.8,66.4,29.95,WSW,246,3.0,4.0,56,0.00,,,0.00,Wunderground v.1.13,2013-09-20 20:33:00,
2013-09-20 16:38:00,83.6,66.8,29.95,WSW,247,3.0,3.0,57,0.00,,,0.00,Wunderground v.1.13,2013-09-20 20:38:00,
2013-09-20 16:44:00,83.8,66.4,29.95,WSW,247,1.0,4.0,56,0.00,,,0.00,Wunderground v.1.13,2013-09-20 20:44:00,
2013-09-20 16:49:00,83.9,67.0,29.96,West,274,2.0,6.0,57,0.00,,,0.00,Wunderground v.1.13,2013-09-20 20:49:00,
2013-09-20 16:56:00,84.1,66.2,29.95,SW,216,5.0,5.0,55,0.00,,,0.00,Wunderground v.1.13,2013-09-20 20:56:00,
2013-09-20 17:01:00,84.1,66.2,29.95,SW,220,4.0,5.0,55,0.00,,,0.00,Wunderground v.1.13,2013-09-20 21:01:00,
2013-09-20 17:07:00,84.2,66.8,29.95,SW,228,3.0,3.0,56,0.00,,,0.00,Wunderground v.1.13,2013-09-20 21:07:00,
2013-09-20 17:13:00,84.3,66.9,29.95,SW,227,2.0,3.0,56,0.00,,,0.00,Wunderground v.1.13,2013-09-20 21:13:00,
2013-09-20 17:19:00,84.3,66.9,29.94,West,270,2.0,5.0,56,0.00,,,0.00,Wunderground v.1.13,2013-09-20 21:19:00,
2013-09-20 17:25:00,84.2,66.8,29.94,West,272,3.0,4.0,56,0.00,,,0.00,Wunderground v.1.13,2013-09-20 21:25:00,
2013-09-20 17:31:00,84.1,67.2,29.94,West,271,2.0,2.0,57,0.00,,,0.00,Wunderground v.1.13,2013-09-20 21:31:00,
2013-09-20 17:36:00,83.9,66.5,29.94,West,266,1.0,1.0,56,0.00,,,0.00,Wunderground v.1.13,2013-09-20 21:36:00,
2013-09-20 17:41:00,83.6,66.2,29.94,West,265,1.0,3.0,56,0.00,,,0.00,Wunderground v.1.13,2013-09-20 21:41:00,
2013-09-20 17:47:00,83.3,67.5,29.94,West,265,0.0,3.0,59,0.00,,,0.00,Wunderground v.1.13,2013-09-20 21:47:00,
2013-09-20 17:52:00,83.1,67.3,29.94,West,265,0.0,0.0,59,0.00,,,0.00,Wunderground v.1.13,2013-09-20 21:52:00,
2013-09-20 17:59:00,83.0,67.2,29.94,West,265,0.0,0.0,59,0.00,,,0.00,Wunderground v.1.13,2013-09-20 21:59:00,
2013-09-20 18:04:00,83.0,67.2,29.94,West,265,0.0,2.0,59,0.00,,,0.00,Wunderground v.1.13,2013-09-20 22:04:00,
2013-09-20 18:10:00,83.0,67.7,29.94,West,265,1.0,1.0,60,0.00,,,0.00,Wunderground v.1.13,2013-09-20 22:10:00,
2013-09-20 18:16:00,83.1,67.3,29.94,West,261,1.0,1.0,59,0.00,,,0.00,Wunderground v.1.13,2013-09-20 22:16:00,
2013-09-20 18:21:00,83.1,67.3,29.93,West,261,1.0,1.0,59,0.00,,,0.00,Wunderground v.1.13,2013-09-20 22:21:00,
2013-09-20 18:27:00,83.1,66.8,29.93,West,261,0.0,3.0,58,0.00,,,0.00,Wunderground v.1.13,2013-09-20 22:27:00,
2013-09-20 18:32:00,83.0,66.7,29.93,West,261,1.0,3.0,58,0.00,,,0.00,Wunderground v.1.13,2013-09-20 22:32:00,
2013-09-20 18:37:00,82.7,66.4,29.94,West,261,2.0,4.0,58,0.00,,,0.00,Wunderground v.1.13,2013-09-20 22:37:00,
2013-09-20 18:43:00,82.4,67.1,29.94,West,261,2.0,2.0,60,0.00,,,0.00,Wunderground v.1.13,2013-09-20 22:43:00,
2013-09-20 18:48:00,82.1,67.8,29.93,West,261,1.0,2.0,62,0.00,,,0.00,Wunderground v.1.13,2013-09-20 22:48:00,
2013-09-20 18:54:00,81.6,68.2,29.93,West,261,0.0,1.0,64,0.00,,,0.00,Wunderground v.1.13,2013-09-20 22:54:00,
2013-09-20 19:01:00,81.0,69.0,29.93,West,261,0.0,0.0,67,0.00,,,0.00,Wunderground v.1.13,2013-09-20 23:01:00,
2013-09-20 19:06:00,80.5,69.0,29.93,West,261,0.0,0.0,68,0.00,,,0.00,Wunderground v.1.13,2013-09-20 23:06:00,
2013-09-20 19:12:00,79.4,68.8,29.93,West,261,0.0,0.0,70,0.00,,,0.00,Wunderground v.1.13,2013-09-20 23:12:00,
2013-09-20 19:17:00,78.6,68.8,29.92,West,261,0.0,0.0,72,0.00,,,0.00,Wunderground v.1.13,2013-09-20 23:17:00,
2013-09-20 19:23:00,77.8,68.4,29.92,West,261,0.0,0.0,73,0.00,,,0.00,Wunderground v.1.13,2013-09-20 23:23:00,
2013-09-20 19:28:00,77.1,68.2,29.93,West,261,0.0,0.0,74,0.00,,,0.00,Wunderground v.1.13,2013-09-20 23:28:00,
2013-09-20 19:34:00,76.7,68.2,29.93,West,261,0.0,0.0,75,0.00,,,0.00,Wunderground v.1.13,2013-09-20 23:34:00,
2013-09-20 19:39:00,76.1,67.6,29.93,West,261,0.0,0.0,75,0.00,,,0.00,Wunderground v.1.13,2013-09-20 23:39:00,
2013-09-20 19:45:00,75.4,67.3,29.93,West,261,0.0,0.0,76,0.00,,,0.00,Wunderground v.1.13,2013-09-20 23:45:00,
2013-09-20 19:51:00,74.7,67.0,29.92,West,261,0.0,0.0,77,0.00,,,0.00,Wunderground v.1.13,2013-09-20 23:51:00,
2013-09-20 19:56:00,74.0,67.1,29.92,West,261,0.0,0.0,79,0.00,,,0.00,Wunderground v.1.13,2013-09-20 23:56:00,
2013-09-20 20:01:00,73.5,66.6,29.92,West,261,0.0,0.0,79,0.00,,,0.00,Wunderground v.1.13,2013-09-21 00:01:00,
2013-09-20 20:07:00,73.2,66.7,29.92,West,261,0.0,0.0,80,0.00,,,0.00,Wunderground v.1.13,2013-09-21 00:07:00,
2013-09-20 20:13:00,72.7,66.5,29.93,West,261,0.0,0.0,81,0.00,,,0.00,Wunderground v.1.13,2013-09-21 00:13:00,
2013-09-20 20:19:00,72.4,66.6,29.93,West,261,0.0,0.0,82,0.00,,,0.00,Wunderground v.1.13,2013-09-21 00:19:00,
2013-09-20 20:26:00,72.0,66.2,29.93,West,261,0.0,0.0,82,0.00,,,0.00,Wunderground v.1.13,2013-09-21 00:26:00,
2013-09-20 20:31:00,71.6,66.2,29.93,West,261,0.0,0.0,83,0.00,,,0.00,Wunderground v.1.13,2013-09-21 00:31:00,
2013-09-20 20:38:00,71.3,65.9,29.93,West,261,0.0,0.0,83,0.00,,,0.00,Wunderground v.1.13,2013-09-21 00:38:00,
2013-09-20 20:43:00,70.9,65.8,29.93,West,261,0.0,0.0,84,0.00,,,0.00,Wunderground v.1.13,2013-09-21 00:43:00,
2013-09-20 20:48:00,70.6,65.9,29.93,West,261,0.0,0.0,85,0.00,,,0.00,Wunderground v.1.13,2013-09-21 00:48:00,
2013-09-20 20:54:00,70.2,65.8,29.93,West,261,0.0,0.0,86,0.00,,,0.00,Wunderground v.1.13,2013-09-21 00:54:00,
2013-09-20 20:59:00,70.0,65.6,29.93,West,261,0.0,0.0,86,0.00,,,0.00,Wunderground v.1.13,2013-09-21 00:59:00,
2013-09-20 21:05:00,69.6,65.2,29.93,West,261,0.0,0.0,86,0.00,,,0.00,Wunderground v.1.13,2013-09-21 01:05:00,
2013-09-20 21:11:00,69.3,65.3,29.93,West,261,0.0,0.0,87,0.00,,,0.00,Wunderground v.1.13,2013-09-21 01:11:00,
2013-09-20 21:17:00,69.1,65.1,29.93,West,261,0.0,0.0,87,0.00,,,0.00,Wunderground v.1.13,2013-09-21 01:17:00,
2013-09-20 21:22:00,68.8,65.1,29.93,West,261,0.0,0.0,88,0.00,,,0.00,Wunderground v.1.13,2013-09-21 01:22:00,
2013-09-20 21:28:00,68.6,64.9,29.93,West,261,0.0,0.0,88,0.00,,,0.00,Wunderground v.1.13,2013-09-21 01:28:00,
2013-09-20 21:33:00,68.4,64.7,29.93,West,261,0.0,0.0,88,0.00,,,0.00,Wunderground v.1.13,2013-09-21 01:33:00,
2013-09-20 21:38:00,68.3,64.6,29.93,West,261,0.0,0.0,88,0.00,,,0.00,Wunderground v.1.13,2013-09-21 01:38:00,
2013-09-20 21:44:00,68.1,64.7,29.93,West,261,0.0,0.0,89,0.00,,,0.00,Wunderground v.1.13,2013-09-21 01:44:00,
2013-09-20 21:50:00,68.0,64.6,29.92,West,261,0.0,0.0,89,0.00,,,0.00,Wunderground v.1.13,2013-09-21 01:50:00,
2013-09-20 21:55:00,67.9,64.5,29.92,West,261,0.0,0.0,89,0.00,,,0.00,Wunderground v.1.13,2013-09-21 01:55:00,
2013-09-20 22:01:00,67.7,64.3,29.92,West,261,0.0,0.0,89,0.00,,,0.00,Wunderground v.1.13,2013-09-21 02:01:00,
2013-09-20 22:07:00,67.5,64.1,29.92,West,261,0.0,0.0,89,0.00,,,0.00,Wunderground v.1.13,2013-09-21 02:07:00,
2013-09-20 22:13:00,67.3,63.9,29.92,West,261,0.0,0.0,89,0.00,,,0.00,Wunderground v.1.13,2013-09-21 02:13:00,
2013-09-20 22:18:00,67.2,63.8,29.92,West,261,0.0,0.0,89,0.00,,,0.00,Wunderground v.1.13,2013-09-21 02:18:00,
2013-09-20 22:24:00,67.0,63.6,29.92,West,261,0.0,0.0,89,0.00,,,0.00,Wunderground v.1.13,2013-09-21 02:24:00,
2013-09-20 22:30:00,66.7,63.7,29.92,West,261,0.0,0.0,90,0.00,,,0.00,Wunderground v.1.13,2013-09-21 02:30:00,
2013-09-20 22:36:00,66.6,63.3,29.92,West,261,0.0,0.0,89,0.00,,,0.00,Wunderground v.1.13,2013-09-21 02:36:00,
2013-09-20 22:41:00,66.5,63.5,29.91,West,261,0.0,0.0,90,0.00,,,0.00,Wunderground v.1.13,2013-09-21 02:41:00,
2013-09-20 22:47:00,66.3,63.3,29.92,West,261,0.0,0.0,90,0.00,,,0.00,Wunderground v.1.13,2013-09-21 02:47:00,
2013-09-20 22:53:00,66.1,63.4,29.92,West,261,0.0,0.0,91,0.00,,,0.00,Wunderground v.1.13,2013-09-21 02:53:00,
2013-09-20 22:58:00,66.0,63.3,29.91,West,261,0.0,0.0,91,0.00,,,0.00,Wunderground v.1.13,2013-09-21 02:58:00,
2013-09-20 23:03:00,65.9,63.2,29.91,West,261,0.0,0.0,91,0.00,,,0.00,Wunderground v.1.13,2013-09-21 03:03:00,
2013-09-20 23:08:00,65.8,63.1,29.91,West,261,0.0,0.0,91,0.00,,,0.00,Wunderground v.1.13,2013-09-21 03:08:00,
2013-09-20 23:14:00,65.6,62.9,29.91,West,261,0.0,0.0,91,0.00,,,0.00,Wunderground v.1.13,2013-09-21 03:14:00,
2013-09-20 23:20:00,65.4,62.7,29.91,West,261,0.0,0.0,91,0.00,,,0.00,Wunderground v.1.13,2013-09-21 03:20:00,
2013-09-20 23:25:00,65.3,62.6,29.91,West,261,0.0,0.0,91,0.00,,,0.00,Wunderground v.1.13,2013-09-21 03:25:00,
2013-09-20 23:31:00,65.2,62.8,29.92,West,261,0.0,0.0,92,0.00,,,0.00,Wunderground v.1.13,2013-09-21 03:31:00,
2013-09-20 23:37:00,65.0,62.6,29.92,West,261,0.0,0.0,92,0.00,,,0.00,Wunderground v.1.13,2013-09-21 03:37:00,
2013-09-20 23:42:00,65.0,62.6,29.92,West,261,0.0,0.0,92,0.00,,,0.00,Wunderground v.1.13,2013-09-21 03:42:00,
2013-09-20 23:48:00,64.9,62.5,29.91,West,261,0.0,0.0,92,0.00,,,0.00,Wunderground v.1.13,2013-09-21 03:48:00,
2013-09-20 23:54:00,64.8,62.4,29.91,West,261,0.0,0.0,92,0.00,,,0.00,Wunderground v.1.13,2013-09-21 03:54:00,
2013-09-20 23:59:00,64.7,62.3,29.92,West,261,0.0,0.0,92,0.00,,,0.00,Wunderground v.1.13,2013-09-21 03:59:00,